CPH weather

Copenhagen Kastrup Airport
Copenhagen, Capital Region, Denmark

Public forecast

Using degrees Celsius for public forecast. Weather courtesy of forecast.io.

METAR (pilot weather report)

Retrieved 2017/04/27 00:50 UTC (13 minutes ago):

EKCH 270050Z 23005KT CAVOK 01/00 Q1011 NOSIG

TAF (pilot weather forecast)

Forecast is more than 12 hours old.

Retrieved 2017/04/26 00:00 UTC (1 day ago):

TAF EKCH 262300Z 2700/2724 27005KT 9999 SCT030 PROB40 2700/2705 2000 BCFG MIFG BECMG 2706/2709 22012KT TEMPO 2710/2721 SCT020CB